sensor_id;sensor_type;location;lat;lon;timestamp;temperature;humidity
70676;DHT22;59069;52.242;20.900;2023-03-01T00:01:40;-1.32;79.08
70676;DHT22;59069;52.242;20.900;2023-03-01T00:04:06;-1.35;79.22
70676;DHT22;59069;52.242;20.900;2023-03-01T00:06:31;-1.32;79.35
70676;DHT22;59069;52.242;20.900;2023-03-01T00:08:57;-1.34;79.40
70676;DHT22;59069;52.242;20.900;2023-03-01T00:11:25;-1.35;79.47
70676;DHT22;59069;52.242;20.900;2023-03-01T00:13:54;-1.35;79.42
70676;DHT22;59069;52.242;20.900;2023-03-01T00:16:23;-1.34;79.45
70676;DHT22;59069;52.242;20.900;2023-03-01T00:18:49;-1.38;79.49
70676;DHT22;59069;52.242;20.900;2023-03-01T00:21:16;-1.34;79.46
70676;DHT22;59069;52.242;20.900;2023-03-01T00:23:42;-1.36;79.43
70676;DHT22;59069;52.242;20.900;2023-03-01T00:26:10;-1.38;79.50
70676;DHT22;59069;52.242;20.900;2023-03-01T00:28:38;-1.39;79.54
70676;DHT22;59069;52.242;20.900;2023-03-01T00:31:26;-1.42;79.49
70676;DHT22;59069;52.242;20.900;2023-03-01T00:33:58;-1.46;79.50
70676;DHT22;59069;52.242;20.900;2023-03-01T00:36:26;-1.45;79.55
70676;DHT22;59069;52.242;20.900;2023-03-01T00:38:52;-1.46;79.60
70676;DHT22;59069;52.242;20.900;2023-03-01T00:41:18;-1.46;79.67
70676;DHT22;59069;52.242;20.900;2023-03-01T00:43:45;-1.47;79.74
70676;DHT22;59069;52.242;20.900;2023-03-01T00:46:13;-1.50;79.82
70676;DHT22;59069;52.242;20.900;2023-03-01T00:48:39;-1.49;79.99
70676;DHT22;59069;52.242;20.900;2023-03-01T00:51:10;-1.50;80.08
70676;DHT22;59069;52.242;20.900;2023-03-01T00:53:36;-1.53;80.13
70676;DHT22;59069;52.242;20.900;2023-03-01T00:56:03;-1.55;80.14
70676;DHT22;59069;52.242;20.900;2023-03-01T00:58:29;-1.53;80.22
70676;DHT22;59069;52.242;20.900;2023-03-01T01:00:55;-1.52;80.23
70676;DHT22;59069;52.242;20.900;2023-03-01T01:03:21;-1.55;80.28
70676;DHT22;59069;52.242;20.900;2023-03-01T01:05:46;-1.52;80.28
70676;DHT22;59069;52.242;20.900;2023-03-01T01:08:12;-1.55;80.26
70676;DHT22;59069;52.242;20.900;2023-03-01T01:10:38;-1.55;80.33
70676;DHT22;59069;52.242;20.900;2023-03-01T01:13:04;-1.57;80.34
70676;DHT22;59069;52.242;20.900;2023-03-01T01:15:33;-1.57;80.30
70676;DHT22;59069;52.242;20.900;2023-03-01T01:17:59;-1.59;80.34
70676;DHT22;59069;52.242;20.900;2023-03-01T01:20:24;-1.62;80.36
70676;DHT22;59069;52.242;20.900;2023-03-01T01:22:50;-1.59;80.45
70676;DHT22;59069;52.242;20.900;2023-03-01T01:25:16;-1.62;80.41
70676;DHT22;59069;52.242;20.900;2023-03-01T01:27:42;-1.64;80.51
70676;DHT22;59069;52.242;20.900;2023-03-01T01:30:08;-1.63;80.54
70676;DHT22;59069;52.242;20.900;2023-03-01T01:32:34;-1.62;80.53
70676;DHT22;59069;52.242;20.900;2023-03-01T01:34:59;-1.62;80.56
70676;DHT22;59069;52.242;20.900;2023-03-01T01:37:25;-1.62;80.63
70676;DHT22;59069;52.242;20.900;2023-03-01T01:40:00;-1.64;80.71
70676;DHT22;59069;52.242;20.900;2023-03-01T01:42:29;-1.63;80.76
70676;DHT22;59069;52.242;20.900;2023-03-01T01:48:11;-1.66;80.89
70676;DHT22;59069;52.242;20.900;2023-03-01T01:50:39;-1.69;80.94
70676;DHT22;59069;52.242;20.900;2023-03-01T01:53:15;-1.67;81.02
70676;DHT22;59069;52.242;20.900;2023-03-01T01:55:45;-1.67;81.06
70676;DHT22;59069;52.242;20.900;2023-03-01T01:58:14;-1.69;81.10
70676;DHT22;59069;52.242;20.900;2023-03-01T02:00:41;-1.71;81.18
70676;DHT22;59069;52.242;20.900;2023-03-01T02:03:10;-1.71;81.21
70676;DHT22;59069;52.242;20.900;2023-03-01T02:05:42;-1.73;81.25
70676;DHT22;59069;52.242;20.900;2023-03-01T02:08:11;-1.74;81.34
70676;DHT22;59069;52.242;20.900;2023-03-01T02:10:38;-1.74;81.35
70676;DHT22;59069;52.242;20.900;2023-03-01T02:13:04;-1.76;81.37
70676;DHT22;59069;52.242;20.900;2023-03-01T02:15:34;-1.76;81.50
70676;DHT22;59069;52.242;20.900;2023-03-01T02:18:01;-1.80;81.58
70676;DHT22;59069;52.242;20.900;2023-03-01T02:23:08;-1.78;81.63
70676;DHT22;59069;52.242;20.900;2023-03-01T02:25:42;-1.78;81.68
70676;DHT22;59069;52.242;20.900;2023-03-01T02:30:47;-1.81;81.78
70676;DHT22;59069;52.242;20.900;2023-03-01T02:33:35;-1.80;81.83
70676;DHT22;59069;52.242;20.900;2023-03-01T02:36:10;-1.81;81.88
70676;DHT22;59069;52.242;20.900;2023-03-01T02:38:39;-1.78;81.88
70676;DHT22;59069;52.242;20.900;2023-03-01T02:41:05;-1.83;81.85
70676;DHT22;59069;52.242;20.900;2023-03-01T02:43:32;-1.81;81.91
70676;DHT22;59069;52.242;20.900;2023-03-01T02:46:02;-1.84;82.03
70676;DHT22;59069;52.242;20.900;2023-03-01T02:57:02;-1.86;81.96
70676;DHT22;59069;52.242;20.900;2023-03-01T02:59:31;-1.87;81.96
70676;DHT22;59069;52.242;20.900;2023-03-01T03:02:07;-1.87;81.93
70676;DHT22;59069;52.242;20.900;2023-03-01T03:04:33;-1.90;81.99
70676;DHT22;59069;52.242;20.900;2023-03-01T03:06:59;-1.90;82.03
70676;DHT22;59069;52.242;20.900;2023-03-01T03:09:25;-1.91;82.00
70676;DHT22;59069;52.242;20.900;2023-03-01T03:11:50;-1.91;82.01
70676;DHT22;59069;52.242;20.900;2023-03-01T03:14:16;-1.93;82.01
70676;DHT22;59069;52.242;20.900;2023-03-01T03:16:49;-1.93;81.98
70676;DHT22;59069;52.242;20.900;2023-03-01T03:19:16;-1.95;82.04
70676;DHT22;59069;52.242;20.900;2023-03-01T03:21:42;-1.95;82.08
70676;DHT22;59069;52.242;20.900;2023-03-01T03:24:08;-1.95;82.06
70676;DHT22;59069;52.242;20.900;2023-03-01T03:26:34;-1.98;82.07
70676;DHT22;59069;52.242;20.900;2023-03-01T03:28:59;-1.98;82.07
70676;DHT22;59069;52.242;20.900;2023-03-01T03:31:25;-1.98;82.12
70676;DHT22;59069;52.242;20.900;2023-03-01T03:33:50;-2.01;82.19
70676;DHT22;59069;52.242;20.900;2023-03-01T03:36:18;-1.97;82.17
70676;DHT22;59069;52.242;20.900;2023-03-01T03:38:44;-1.98;82.17
70676;DHT22;59069;52.242;20.900;2023-03-01T03:41:12;-1.98;82.18
70676;DHT22;59069;52.242;20.900;2023-03-01T03:43:39;-1.97;82.14
70676;DHT22;59069;52.242;20.900;2023-03-01T03:46:06;-1.98;82.22
70676;DHT22;59069;52.242;20.900;2023-03-01T03:48:37;-1.97;82.19
70676;DHT22;59069;52.242;20.900;2023-03-01T03:51:03;-2.00;82.20
70676;DHT22;59069;52.242;20.900;2023-03-01T03:53:32;-1.95;82.16
70676;DHT22;59069;52.242;20.900;2023-03-01T03:55:58;-1.97;82.23
70676;DHT22;59069;52.242;20.900;2023-03-01T03:58:25;-1.97;82.24
70676;DHT22;59069;52.242;20.900;2023-03-01T04:00:56;-1.97;82.26
70676;DHT22;59069;52.242;20.900;2023-03-01T04:03:23;-1.97;82.25
70676;DHT22;59069;52.242;20.900;2023-03-01T04:05:49;-1.94;82.22
70676;DHT22;59069;52.242;20.900;2023-03-01T04:08:20;-1.93;82.14
70676;DHT22;59069;52.242;20.900;2023-03-01T04:10:50;-1.91;82.14
70676;DHT22;59069;52.242;20.900;2023-03-01T04:13:19;-1.94;82.06
70676;DHT22;59069;52.242;20.900;2023-03-01T04:15:49;-1.95;81.97
70676;DHT22;59069;52.242;20.900;2023-03-01T04:18:16;-1.97;81.97
70676;DHT22;59069;52.242;20.900;2023-03-01T04:20:43;-2.00;82.03
70676;DHT22;59069;52.242;20.900;2023-03-01T04:23:13;-1.97;82.02
70676;DHT22;59069;52.242;20.900;2023-03-01T04:28:39;-2.00;82.02
70676;DHT22;59069;52.242;20.900;2023-03-01T04:31:08;-1.98;82.03
70676;DHT22;59069;52.242;20.900;2023-03-01T04:33:43;-2.00;81.98
70676;DHT22;59069;52.242;20.900;2023-03-01T04:36:10;-2.01;81.99
70676;DHT22;59069;52.242;20.900;2023-03-01T04:38:38;-2.02;82.00
70676;DHT22;59069;52.242;20.900;2023-03-01T04:41:06;-2.02;82.03
70676;DHT22;59069;52.242;20.900;2023-03-01T04:43:32;-2.02;82.01
70676;DHT22;59069;52.242;20.900;2023-03-01T04:46:11;-2.01;82.05
70676;DHT22;59069;52.242;20.900;2023-03-01T04:48:40;-1.98;82.10
70676;DHT22;59069;52.242;20.900;2023-03-01T04:51:06;-2.01;82.09
70676;DHT22;59069;52.242;20.900;2023-03-01T04:53:33;-1.98;82.15
70676;DHT22;59069;52.242;20.900;2023-03-01T04:56:01;-1.98;82.15
70676;DHT22;59069;52.242;20.900;2023-03-01T04:58:28;-1.98;82.18
70676;DHT22;59069;52.242;20.900;2023-03-01T05:00:54;-1.95;82.19
70676;DHT22;59069;52.242;20.900;2023-03-01T05:03:20;-1.93;82.15
70676;DHT22;59069;52.242;20.900;2023-03-01T05:05:48;-1.93;82.09
70676;DHT22;59069;52.242;20.900;2023-03-01T05:08:14;-1.94;82.08
70676;DHT22;59069;52.242;20.900;2023-03-01T05:10:49;-1.95;82.07
70676;DHT22;59069;52.242;20.900;2023-03-01T05:13:15;-2.00;82.08
70676;DHT22;59069;52.242;20.900;2023-03-01T05:15:56;-1.97;82.11
70676;DHT22;59069;52.242;20.900;2023-03-01T05:18:23;-1.97;82.10
70676;DHT22;59069;52.242;20.900;2023-03-01T05:20:54;-1.94;82.14
70676;DHT22;59069;52.242;20.900;2023-03-01T05:23:24;-1.94;82.12
70676;DHT22;59069;52.242;20.900;2023-03-01T05:25:50;-1.91;82.09
70676;DHT22;59069;52.242;20.900;2023-03-01T05:28:19;-1.91;82.08
70676;DHT22;59069;52.242;20.900;2023-03-01T05:30:45;-1.93;82.09
70676;DHT22;59069;52.242;20.900;2023-03-01T05:33:10;-1.90;82.03
70676;DHT22;59069;52.242;20.900;2023-03-01T05:35:40;-1.88;82.03
70676;DHT22;59069;52.242;20.900;2023-03-01T05:38:07;-1.88;82.05
70676;DHT22;59069;52.242;20.900;2023-03-01T05:40:33;-1.88;82.07
70676;DHT22;59069;52.242;20.900;2023-03-01T05:42:59;-1.86;82.08
70676;DHT22;59069;52.242;20.900;2023-03-01T05:45:26;-1.83;82.06
70676;DHT22;59069;52.242;20.900;2023-03-01T05:47:53;-1.83;82.07
70676;DHT22;59069;52.242;20.900;2023-03-01T05:50:21;-1.80;82.10
70676;DHT22;59069;52.242;20.900;2023-03-01T05:52:50;-1.78;82.13
70676;DHT22;59069;52.242;20.900;2023-03-01T05:55:20;-1.73;82.11
70676;DHT22;59069;52.242;20.900;2023-03-01T05:57:47;-1.71;82.11
70676;DHT22;59069;52.242;20.900;2023-03-01T06:00:14;-1.64;82.13
70676;DHT22;59069;52.242;20.900;2023-03-01T06:02:40;-1.62;82.07
70676;DHT22;59069;52.242;20.900;2023-03-01T06:05:08;-1.59;82.07
70676;DHT22;59069;52.242;20.900;2023-03-01T06:07:34;-1.50;81.99
70676;DHT22;59069;52.242;20.900;2023-03-01T06:10:00;-1.47;81.92
70676;DHT22;59069;52.242;20.900;2023-03-01T06:12:27;-1.46;81.75
70676;DHT22;59069;52.242;20.900;2023-03-01T06:14:55;-1.39;81.74
70676;DHT22;59069;52.242;20.900;2023-03-01T06:17:21;-1.38;81.62
70676;DHT22;59069;52.242;20.900;2023-03-01T06:19:46;-1.31;81.65
70676;DHT22;59069;52.242;20.900;2023-03-01T06:22:12;-1.26;81.47
70676;DHT22;59069;52.242;20.900;2023-03-01T06:24:38;-1.19;81.26
70676;DHT22;59069;52.242;20.900;2023-03-01T06:27:04;-1.15;81.20
70676;DHT22;59069;52.242;20.900;2023-03-01T06:29:30;-1.08;81.14
70676;DHT22;59069;52.242;20.900;2023-03-01T06:31:55;-1.02;81.01
70676;DHT22;59069;52.242;20.900;2023-03-01T06:34:21;-0.98;81.00
70676;DHT22;59069;52.242;20.900;2023-03-01T06:36:47;-0.85;80.94
70676;DHT22;59069;52.242;20.900;2023-03-01T06:39:12;-0.75;80.75
70676;DHT22;59069;52.242;20.900;2023-03-01T06:41:38;-0.67;80.53
70676;DHT22;59069;52.242;20.900;2023-03-01T06:44:04;-0.58;80.41
70676;DHT22;59069;52.242;20.900;2023-03-01T06:46:29;-0.52;80.23
70676;DHT22;59069;52.242;20.900;2023-03-01T06:48:55;-0.40;79.99
70676;DHT22;59069;52.242;20.900;2023-03-01T06:51:21;-0.32;79.78
70676;DHT22;59069;52.242;20.900;2023-03-01T06:53:46;-0.17;79.65
70676;DHT22;59069;52.242;20.900;2023-03-01T06:56:12;-0.06;79.39
70676;DHT22;59069;52.242;20.900;2023-03-01T06:58:38;0.04;79.42
70676;DHT22;59069;52.242;20.900;2023-03-01T07:01:07;0.17;79.07
70676;DHT22;59069;52.242;20.900;2023-03-01T07:03:34;0.26;78.73
70676;DHT22;59069;52.242;20.900;2023-03-01T07:05:59;0.36;78.07
70676;DHT22;59069;52.242;20.900;2023-03-01T07:08:25;0.42;77.47
70676;DHT22;59069;52.242;20.900;2023-03-01T07:10:57;0.55;77.12
70676;DHT22;59069;52.242;20.900;2023-03-01T07:13:23;0.60;76.64
70676;DHT22;59069;52.242;20.900;2023-03-01T07:15:49;0.70;76.72
70676;DHT22;59069;52.242;20.900;2023-03-01T07:18:14;0.89;76.94
70676;DHT22;59069;52.242;20.900;2023-03-01T07:20:40;0.99;76.35
70676;DHT22;59069;52.242;20.900;2023-03-01T07:23:06;1.08;76.21
70676;DHT22;59069;52.242;20.900;2023-03-01T07:25:32;1.20;75.84
70676;DHT22;59069;52.242;20.900;2023-03-01T07:27:58;1.27;75.26
70676;DHT22;59069;52.242;20.900;2023-03-01T07:30:24;1.32;74.69
70676;DHT22;59069;52.242;20.900;2023-03-01T07:32:51;1.42;74.63
70676;DHT22;59069;52.242;20.900;2023-03-01T07:35:17;1.49;74.04
70676;DHT22;59069;52.242;20.900;2023-03-01T07:37:43;1.51;73.90
70676;DHT22;59069;52.242;20.900;2023-03-01T07:40:10;1.49;73.54
70676;DHT22;59069;52.242;20.900;2023-03-01T07:42:35;1.56;73.13
70676;DHT22;59069;52.242;20.900;2023-03-01T07:45:01;1.62;72.73
70676;DHT22;59069;52.242;20.900;2023-03-01T07:47:27;1.68;72.77
70676;DHT22;59069;52.242;20.900;2023-03-01T07:49:52;1.76;72.46
70676;DHT22;59069;52.242;20.900;2023-03-01T07:52:18;1.86;72.01
70676;DHT22;59069;52.242;20.900;2023-03-01T07:54:43;1.99;71.65
70676;DHT22;59069;52.242;20.900;2023-03-01T07:57:12;2.14;71.54
70676;DHT22;59069;52.242;20.900;2023-03-01T07:59:37;2.27;71.33
70676;DHT22;59069;52.242;20.900;2023-03-01T08:02:03;2.47;72.64
70676;DHT22;59069;52.242;20.900;2023-03-01T08:04:28;2.80;74.54
70676;DHT22;59069;52.242;20.900;2023-03-01T08:06:55;3.25;84.30
70676;DHT22;59069;52.242;20.900;2023-03-01T08:09:21;3.69;84.67
70676;DHT22;59069;52.242;20.900;2023-03-01T08:11:46;4.14;79.14
70676;DHT22;59069;52.242;20.900;2023-03-01T08:14:12;4.73;76.43
70676;DHT22;59069;52.242;20.900;2023-03-01T08:16:38;5.37;72.61
70676;DHT22;59069;52.242;20.900;2023-03-01T08:19:05;6.06;67.84
70676;DHT22;59069;52.242;20.900;2023-03-01T08:21:32;6.70;64.79
70676;DHT22;59069;52.242;20.900;2023-03-01T08:24:01;7.19;60.74
70676;DHT22;59069;52.242;20.900;2023-03-01T08:26:26;7.47;55.60
70676;DHT22;59069;52.242;20.900;2023-03-01T08:28:52;7.70;56.41
70676;DHT22;59069;52.242;20.900;2023-03-01T08:31:23;7.85;52.42
70676;DHT22;59069;52.242;20.900;2023-03-01T08:33:54;7.91;51.57
70676;DHT22;59069;52.242;20.900;2023-03-01T08:36:22;7.97;50.92
70676;DHT22;59069;52.242;20.900;2023-03-01T08:38:48;8.09;53.64
70676;DHT22;59069;52.242;20.900;2023-03-01T08:41:14;8.21;50.31
70676;DHT22;59069;52.242;20.900;2023-03-01T08:43:40;8.25;50.22
70676;DHT22;59069;52.242;20.900;2023-03-01T08:46:06;8.48;51.62
70676;DHT22;59069;52.242;20.900;2023-03-01T08:48:31;8.79;51.89
70676;DHT22;59069;52.242;20.900;2023-03-01T08:51:07;9.11;51.88
70676;DHT22;59069;52.242;20.900;2023-03-01T08:53:33;9.49;48.73
70676;DHT22;59069;52.242;20.900;2023-03-01T08:56:03;9.48;45.68
70676;DHT22;59069;52.242;20.900;2023-03-01T08:58:29;9.58;47.21
70676;DHT22;59069;52.242;20.900;2023-03-01T09:00:55;9.78;48.23
70676;DHT22;59069;52.242;20.900;2023-03-01T09:03:22;10.06;48.13
70676;DHT22;59069;52.242;20.900;2023-03-01T09:05:49;10.24;43.48
70676;DHT22;59069;52.242;20.900;2023-03-01T09:08:19;10.14;40.94
70676;DHT22;59069;52.242;20.900;2023-03-01T09:10:45;9.62;38.60
70676;DHT22;59069;52.242;20.900;2023-03-01T09:13:11;9.26;43.38
70676;DHT22;59069;52.242;20.900;2023-03-01T09:15:38;9.16;45.86
70676;DHT22;59069;52.242;20.900;2023-03-01T09:18:04;9.38;49.38
70676;DHT22;59069;52.242;20.900;2023-03-01T09:20:31;9.59;48.84
70676;DHT22;59069;52.242;20.900;2023-03-01T09:22:57;9.77;47.51
70676;DHT22;59069;52.242;20.900;2023-03-01T09:25:23;9.98;44.47
70676;DHT22;59069;52.242;20.900;2023-03-01T09:27:53;9.98;45.03
70676;DHT22;59069;52.242;20.900;2023-03-01T09:30:19;9.88;43.31
70676;DHT22;59069;52.242;20.900;2023-03-01T09:32:45;9.69;43.25
70676;DHT22;59069;52.242;20.900;2023-03-01T09:35:11;9.49;43.91
70676;DHT22;59069;52.242;20.900;2023-03-01T09:37:38;9.27;45.23
70676;DHT22;59069;52.242;20.900;2023-03-01T09:40:08;9.18;47.49
70676;DHT22;59069;52.242;20.900;2023-03-01T09:42:48;9.26;49.03
70676;DHT22;59069;52.242;20.900;2023-03-01T09:45:26;9.28;45.89
70676;DHT22;59069;52.242;20.900;2023-03-01T09:47:53;9.21;46.02
70676;DHT22;59069;52.242;20.900;2023-03-01T09:50:20;9.34;50.67
70676;DHT22;59069;52.242;20.900;2023-03-01T10:07:02;13.64;40.98
70676;DHT22;59069;52.242;20.900;2023-03-01T10:09:34;14.28;39.24
70676;DHT22;59069;52.242;20.900;2023-03-01T10:12:00;14.70;36.35
70676;DHT22;59069;52.242;20.900;2023-03-01T10:14:38;15.01;37.56
70676;DHT22;59069;52.242;20.900;2023-03-01T10:17:41;15.10;35.47
70676;DHT22;59069;52.242;20.900;2023-03-01T10:22:41;15.37;34.78
70676;DHT22;59069;52.242;20.900;2023-03-01T10:25:13;15.27;33.70
70676;DHT22;59069;52.242;20.900;2023-03-01T10:27:52;14.81;30.87
70676;DHT22;59069;52.242;20.900;2023-03-01T10:30:39;13.91;29.21
70676;DHT22;59069;52.242;20.900;2023-03-01T10:33:23;12.78;32.87
70676;DHT22;59069;52.242;20.900;2023-03-01T10:35:51;11.84;35.12
70676;DHT22;59069;52.242;20.900;2023-03-01T10:38:17;11.15;37.24
70676;DHT22;59069;52.242;20.900;2023-03-01T10:43:19;10.97;41.84
70676;DHT22;59069;52.242;20.900;2023-03-01T10:45:45;10.59;38.25
70676;DHT22;59069;52.242;20.900;2023-03-01T10:48:18;10.10;41.24
70676;DHT22;59069;52.242;20.900;2023-03-01T10:50:50;9.69;42.45
70676;DHT22;59069;52.242;20.900;2023-03-01T10:53:42;9.65;49.64
70676;DHT22;59069;52.242;20.900;2023-03-01T10:56:10;10.03;53.28
70676;DHT22;59069;52.242;20.900;2023-03-01T10:58:39;9.78;40.75
70676;DHT22;59069;52.242;20.900;2023-03-01T11:03:40;8.69;43.15
70676;DHT22;59069;52.242;20.900;2023-03-01T11:08:41;7.69;47.65
70676;DHT22;59069;52.242;20.900;2023-03-01T11:11:31;7.26;49.93
70676;DHT22;59069;52.242;20.900;2023-03-01T11:13:59;7.03;50.98
70676;DHT22;59069;52.242;20.900;2023-03-01T11:16:36;6.89;52.04
70676;DHT22;59069;52.242;20.900;2023-03-01T11:21:37;6.54;53.72
70676;DHT22;59069;52.242;20.900;2023-03-01T11:24:05;6.44;54.73
70676;DHT22;59069;52.242;20.900;2023-03-01T11:26:34;6.43;55.48
70676;DHT22;59069;52.242;20.900;2023-03-01T11:29:05;6.38;56.01
70676;DHT22;59069;52.242;20.900;2023-03-01T11:31:33;6.38;56.67
70676;DHT22;59069;52.242;20.900;2023-03-01T11:34:09;6.37;56.80
70676;DHT22;59069;52.242;20.900;2023-03-01T11:39:39;6.29;57.54
70676;DHT22;59069;52.242;20.900;2023-03-01T11:45:10;6.30;58.20
70676;DHT22;59069;52.242;20.900;2023-03-01T11:48:05;6.29;58.41
70676;DHT22;59069;52.242;20.900;2023-03-01T11:50:44;6.29;58.93
70676;DHT22;59069;52.242;20.900;2023-03-01T11:56:16;6.36;59.51
70676;DHT22;59069;52.242;20.900;2023-03-01T12:07:11;6.51;60.14
70676;DHT22;59069;52.242;20.900;2023-03-01T12:26:31;6.87;60.66
70676;DHT22;59069;52.242;20.900;2023-03-01T12:34:55;7.12;60.83
70676;DHT22;59069;52.242;20.900;2023-03-01T12:43:17;7.52;60.36
70676;DHT22;59069;52.242;20.900;2023-03-01T12:45:50;7.70;60.61
70676;DHT22;59069;52.242;20.900;2023-03-01T12:51:06;8.21;59.65
70676;DHT22;59069;52.242;20.900;2023-03-01T12:53:40;8.32;58.36
70676;DHT22;59069;52.242;20.900;2023-03-01T12:56:09;8.44;58.11
70676;DHT22;59069;52.242;20.900;2023-03-01T13:12:42;8.67;57.13
70676;DHT22;59069;52.242;20.900;2023-03-01T13:15:29;8.63;57.16
70676;DHT22;59069;52.242;20.900;2023-03-01T13:20:46;8.63;57.67
70676;DHT22;59069;52.242;20.900;2023-03-01T13:29:00;8.81;57.85
70676;DHT22;59069;52.242;20.900;2023-03-01T13:33:58;8.99;57.74
70676;DHT22;59069;52.242;20.900;2023-03-01T13:38:59;9.44;59.06
70676;DHT22;59069;52.242;20.900;2023-03-01T13:44:30;11.95;65.04
70676;DHT22;59069;52.242;20.900;2023-03-01T13:52:40;14.14;44.16
70676;DHT22;59069;52.242;20.900;2023-03-01T13:55:20;14.12;41.98
70676;DHT22;59069;52.242;20.900;2023-03-01T13:57:53;13.43;41.05
70676;DHT22;59069;52.242;20.900;2023-03-01T14:03:11;12.89;51.49
70676;DHT22;59069;52.242;20.900;2023-03-01T14:05:38;13.16;47.55
70676;DHT22;59069;52.242;20.900;2023-03-01T14:08:04;14.09;48.27
70676;DHT22;59069;52.242;20.900;2023-03-01T14:10:49;15.34;46.79
70676;DHT22;59069;52.242;20.900;2023-03-01T14:16:12;17.20;39.85
70676;DHT22;59069;52.242;20.900;2023-03-01T14:18:51;17.97;38.74
70676;DHT22;59069;52.242;20.900;2023-03-01T14:21:22;18.66;36.16
70676;DHT22;59069;52.242;20.900;2023-03-01T14:23:48;19.12;34.72
70676;DHT22;59069;52.242;20.900;2023-03-01T14:26:21;19.20;32.30
70676;DHT22;59069;52.242;20.900;2023-03-01T14:28:47;18.63;30.54
70676;DHT22;59069;52.242;20.900;2023-03-01T14:31:31;17.23;31.43
70676;DHT22;59069;52.242;20.900;2023-03-01T14:33:57;15.83;33.32
70676;DHT22;59069;52.242;20.900;2023-03-01T14:36:27;14.75;36.35
70676;DHT22;59069;52.242;20.900;2023-03-01T14:38:53;14.79;41.64
70676;DHT22;59069;52.242;20.900;2023-03-01T14:41:24;13.91;38.62
70676;DHT22;59069;52.242;20.900;2023-03-01T14:43:53;13.27;41.12
70676;DHT22;59069;52.242;20.900;2023-03-01T14:46:24;12.49;42.16
70676;DHT22;59069;52.242;20.900;2023-03-01T14:48:53;11.87;43.38
70676;DHT22;59069;52.242;20.900;2023-03-01T14:51:20;11.36;44.78
70676;DHT22;59069;52.242;20.900;2023-03-01T14:53:46;10.94;46.55
70676;DHT22;59069;52.242;20.900;2023-03-01T14:56:14;10.63;47.60
70676;DHT22;59069;52.242;20.900;2023-03-01T14:58:40;10.34;48.86
70676;DHT22;59069;52.242;20.900;2023-03-01T15:01:06;10.13;49.95
70676;DHT22;59069;52.242;20.900;2023-03-01T15:03:47;9.96;50.37
70676;DHT22;59069;52.242;20.900;2023-03-01T15:06:21;9.69;50.62
70676;DHT22;59069;52.242;20.900;2023-03-01T15:08:50;9.38;51.46
70676;DHT22;59069;52.242;20.900;2023-03-01T15:11:27;9.10;52.23
70676;DHT22;59069;52.242;20.900;2023-03-01T15:13:54;8.81;53.16
70676;DHT22;59069;52.242;20.900;2023-03-01T15:16:31;8.60;54.19
70676;DHT22;59069;52.242;20.900;2023-03-01T15:19:01;8.44;55.05
70676;DHT22;59069;52.242;20.900;2023-03-01T15:21:33;8.32;55.74
70676;DHT22;59069;52.242;20.900;2023-03-01T15:26:33;8.18;56.75
70676;DHT22;59069;52.242;20.900;2023-03-01T15:29:00;8.09;57.08
70676;DHT22;59069;52.242;20.900;2023-03-01T15:31:32;7.99;57.52
70676;DHT22;59069;52.242;20.900;2023-03-01T15:36:42;7.74;58.58
70676;DHT22;59069;52.242;20.900;2023-03-01T15:39:40;7.60;59.28
70676;DHT22;59069;52.242;20.900;2023-03-01T15:44:39;7.36;59.99
70676;DHT22;59069;52.242;20.900;2023-03-01T15:47:29;7.23;60.47
70676;DHT22;59069;52.242;20.900;2023-03-01T15:49:56;7.15;60.69
70676;DHT22;59069;52.242;20.900;2023-03-01T15:52:29;7.02;60.87
70676;DHT22;59069;52.242;20.900;2023-03-01T15:54:58;6.95;61.19
70676;DHT22;59069;52.242;20.900;2023-03-01T15:57:25;6.82;61.72
70676;DHT22;59069;52.242;20.900;2023-03-01T15:59:51;6.75;62.33
70676;DHT22;59069;52.242;20.900;2023-03-01T16:02:17;6.75;62.64
70676;DHT22;59069;52.242;20.900;2023-03-01T16:04:42;6.70;62.92
70676;DHT22;59069;52.242;20.900;2023-03-01T16:07:09;6.68;63.12
70676;DHT22;59069;52.242;20.900;2023-03-01T16:09:35;6.68;63.39
70676;DHT22;59069;52.242;20.900;2023-03-01T16:12:01;6.68;63.60
70676;DHT22;59069;52.242;20.900;2023-03-01T16:14:27;6.65;63.72
70676;DHT22;59069;52.242;20.900;2023-03-01T16:16:53;6.64;63.88
70676;DHT22;59069;52.242;20.900;2023-03-01T16:19:18;6.63;64.07
70676;DHT22;59069;52.242;20.900;2023-03-01T16:21:44;6.60;64.34
70676;DHT22;59069;52.242;20.900;2023-03-01T16:24:13;6.55;64.50
70676;DHT22;59069;52.242;20.900;2023-03-01T16:26:38;6.52;64.81
70676;DHT22;59069;52.242;20.900;2023-03-01T16:29:05;6.48;65.16
70676;DHT22;59069;52.242;20.900;2023-03-01T16:31:30;6.45;65.41
70676;DHT22;59069;52.242;20.900;2023-03-01T16:33:58;6.43;65.80
70676;DHT22;59069;52.242;20.900;2023-03-01T16:36:25;6.38;66.07
70676;DHT22;59069;52.242;20.900;2023-03-01T16:38:52;6.38;66.19
70676;DHT22;59069;52.242;20.900;2023-03-01T16:41:21;6.34;66.26
70676;DHT22;59069;52.242;20.900;2023-03-01T16:43:47;6.31;66.42
70676;DHT22;59069;52.242;20.900;2023-03-01T16:46:15;6.29;66.54
70676;DHT22;59069;52.242;20.900;2023-03-01T16:48:42;6.27;66.66
70676;DHT22;59069;52.242;20.900;2023-03-01T16:51:08;6.24;66.85
70676;DHT22;59069;52.242;20.900;2023-03-01T16:53:35;6.19;67.05
70676;DHT22;59069;52.242;20.900;2023-03-01T16:56:09;6.16;67.17
70676;DHT22;59069;52.242;20.900;2023-03-01T16:58:39;6.10;67.24
70676;DHT22;59069;52.242;20.900;2023-03-01T17:01:13;6.09;67.22
70676;DHT22;59069;52.242;20.900;2023-03-01T17:03:40;6.03;67.36
70676;DHT22;59069;52.242;20.900;2023-03-01T17:06:10;5.99;67.41
70676;DHT22;59069;52.242;20.900;2023-03-01T17:08:37;5.90;67.41
70676;DHT22;59069;52.242;20.900;2023-03-01T17:11:14;5.82;67.58
70676;DHT22;59069;52.242;20.900;2023-03-01T17:13:40;5.76;67.72
70676;DHT22;59069;52.242;20.900;2023-03-01T17:16:08;5.71;67.81
70676;DHT22;59069;52.242;20.900;2023-03-01T17:18:35;5.59;67.96
70676;DHT22;59069;52.242;20.900;2023-03-01T17:21:01;5.49;68.25
70676;DHT22;59069;52.242;20.900;2023-03-01T17:23:28;5.42;68.59
70676;DHT22;59069;52.242;20.900;2023-03-01T17:25:54;5.35;68.83
70676;DHT22;59069;52.242;20.900;2023-03-01T17:28:26;5.28;69.11
70676;DHT22;59069;52.242;20.900;2023-03-01T17:30:52;5.21;69.44
70676;DHT22;59069;52.242;20.900;2023-03-01T17:33:20;5.17;69.81
70676;DHT22;59069;52.242;20.900;2023-03-01T17:35:46;5.11;69.91
70676;DHT22;59069;52.242;20.900;2023-03-01T17:38:15;5.04;69.88
70676;DHT22;59069;52.242;20.900;2023-03-01T17:40:42;4.98;70.12
70676;DHT22;59069;52.242;20.900;2023-03-01T17:43:11;4.90;70.49
70676;DHT22;59069;52.242;20.900;2023-03-01T17:45:37;4.86;70.69
70676;DHT22;59069;52.242;20.900;2023-03-01T17:48:04;4.80;70.79
70676;DHT22;59069;52.242;20.900;2023-03-01T17:50:30;4.73;71.08
70676;DHT22;59069;52.242;20.900;2023-03-01T17:52:55;4.70;71.24
70676;DHT22;59069;52.242;20.900;2023-03-01T17:55:21;4.62;71.30
70676;DHT22;59069;52.242;20.900;2023-03-01T17:57:47;4.53;71.38